createdAt,value
2022-10-08T00:01:29.570Z,5.93
2022-10-08T00:03:38.601Z,7.40
2022-10-08T00:05:43.764Z,6.43
2022-10-08T00:07:51.895Z,6.70
2022-10-08T00:09:57.226Z,6.70
2022-10-08T00:12:03.019Z,5.95
2022-10-08T00:14:09.254Z,5.63
2022-10-08T00:16:18.089Z,7.13
2022-10-08T00:18:24.008Z,6.00
2022-10-08T00:20:29.792Z,5.50
2022-10-08T00:22:35.224Z,6.13
2022-10-08T00:24:42.867Z,5.03
2022-10-08T00:26:48.665Z,6.20
2022-10-08T00:28:55.917Z,7.95
2022-10-08T00:31:01.104Z,7.23
2022-10-08T00:33:06.471Z,7.18
2022-10-08T00:35:12.703Z,5.03
2022-10-08T00:37:18.107Z,4.82
2022-10-08T00:39:25.176Z,4.78
2022-10-08T00:41:36.160Z,13.27
2022-10-08T00:43:46.880Z,7.20
2022-10-08T00:45:52.835Z,6.60
2022-10-08T00:47:58.594Z,5.28
2022-10-08T00:50:09.418Z,5.97
2022-10-08T00:52:14.640Z,7.53
2022-10-08T00:54:22.787Z,5.43
2022-10-08T00:58:37.580Z,4.60
2022-10-08T01:00:44.769Z,5.15
2022-10-08T01:02:50.568Z,5.30
2022-10-08T01:04:56.368Z,5.40
2022-10-08T01:07:10.163Z,5.28
2022-10-08T01:09:21.209Z,5.65
2022-10-08T01:11:42.092Z,4.75
2022-10-08T01:13:59.740Z,5.13
2022-10-08T01:16:14.433Z,5.78
2022-10-08T01:18:30.594Z,10.80
2022-10-08T01:20:47.267Z,6.90
2022-10-08T01:23:32.234Z,6.47
2022-10-08T01:25:47.253Z,6.80
2022-10-08T01:28:03.515Z,5.65
2022-10-08T01:30:14.587Z,6.97
2022-10-08T01:32:24.788Z,19.20
2022-10-08T01:34:37.806Z,7.25
2022-10-08T01:36:49.787Z,6.38
2022-10-08T01:39:01.812Z,6.78
2022-10-08T01:41:12.464Z,6.72
2022-10-08T01:43:24.637Z,7.85
2022-10-08T01:45:35.378Z,5.75
2022-10-08T01:47:42.546Z,5.97
2022-10-08T01:49:53.160Z,7.38
2022-10-08T01:52:04.267Z,8.63
2022-10-08T01:54:15.750Z,5.22
2022-10-08T01:56:26.247Z,5.68
2022-10-08T01:58:41.417Z,4.75
2022-10-08T02:00:47.983Z,5.10
2022-10-08T02:02:53.409Z,10.80
2022-10-08T02:04:57.006Z,7.57
2022-10-08T02:07:05.801Z,5.00
2022-10-08T02:09:13.072Z,5.15
2022-10-08T02:11:18.119Z,4.80
2022-10-08T02:13:24.595Z,5.10
2022-10-08T02:15:44.433Z,4.70
2022-10-08T02:18:06.243Z,4.97
2022-10-08T02:20:22.486Z,4.65
2022-10-08T02:22:36.077Z,5.00
2022-10-08T02:24:48.112Z,5.20
2022-10-08T02:26:59.695Z,5.50
2022-10-08T02:29:10.655Z,5.45
2022-10-08T02:31:26.486Z,6.45
2022-10-08T02:33:39.193Z,7.32
2022-10-08T02:35:52.732Z,6.50
2022-10-08T02:38:03.503Z,6.18
2022-10-08T02:40:13.834Z,6.47
2022-10-08T02:42:26.045Z,6.47
2022-10-08T02:44:37.915Z,6.05
2022-10-08T02:46:51.032Z,7.82
2022-10-08T02:49:02.446Z,7.57
2022-10-08T02:51:13.085Z,6.93
2022-10-08T02:53:21.210Z,7.72
2022-10-08T02:55:38.442Z,8.13
2022-10-08T02:57:49.011Z,7.45
2022-10-08T02:59:54.931Z,7.32
2022-10-08T03:02:05.717Z,6.57
2022-10-08T03:04:17.596Z,6.63
2022-10-08T03:06:24.229Z,6.53
2022-10-08T03:08:29.870Z,7.30
2022-10-08T03:10:38.739Z,7.38
2022-10-08T03:12:43.931Z,7.07
2022-10-08T03:14:52.411Z,6.90
2022-10-08T03:16:57.930Z,7.38
2022-10-08T03:19:07.037Z,7.32
2022-10-08T03:21:16.109Z,7.05
2022-10-08T03:23:22.202Z,7.75
2022-10-08T03:25:27.662Z,7.65
2022-10-08T03:27:35.949Z,6.38
2022-10-08T03:29:41.803Z,6.53
2022-10-08T03:31:46.818Z,8.57
2022-10-08T03:33:53.650Z,6.68
2022-10-08T03:36:02.441Z,8.55
2022-10-08T03:38:08.086Z,7.60
2022-10-08T03:40:14.126Z,7.50
2022-10-08T03:42:19.217Z,7.18
2022-10-08T03:44:24.883Z,7.65
2022-10-08T03:46:30.135Z,7.18
2022-10-08T03:48:35.234Z,6.65
2022-10-08T03:50:40.556Z,6.20
2022-10-08T03:52:48.634Z,6.97
2022-10-08T03:54:54.216Z,6.38
2022-10-08T03:56:59.715Z,7.75
2022-10-08T03:59:05.032Z,6.50
2022-10-08T04:01:14.805Z,8.35
2022-10-08T04:03:20.529Z,12.55
2022-10-08T04:05:25.519Z,9.60
2022-10-08T04:07:31.749Z,9.40
2022-10-08T04:09:40.161Z,14.82
2022-10-08T04:11:45.159Z,9.52
2022-10-08T04:13:51.065Z,6.70
2022-10-08T04:15:56.144Z,6.85
2022-10-08T04:18:01.187Z,7.53
2022-10-08T04:20:06.946Z,6.35
2022-10-08T04:22:11.966Z,10.95
2022-10-08T04:24:17.863Z,20.77
2022-10-08T04:26:25.552Z,9.98
2022-10-08T04:28:36.277Z,20.60
2022-10-08T04:30:43.752Z,12.48
2022-10-08T04:32:49.365Z,13.50
2022-10-08T04:37:06.067Z,8.40
2022-10-08T04:39:11.278Z,8.80
2022-10-08T04:41:18.566Z,8.32
2022-10-08T04:43:26.166Z,8.27
2022-10-08T04:45:31.160Z,8.38
2022-10-08T04:47:36.202Z,8.15
2022-10-08T04:49:41.232Z,4.38
2022-10-08T04:51:46.240Z,6.20
2022-10-08T04:53:51.473Z,7.80
2022-10-08T04:55:57.380Z,8.13
2022-10-08T04:58:03.066Z,9.98
2022-10-08T05:00:18.313Z,9.38
2022-10-08T05:02:26.071Z,7.65
2022-10-08T05:04:31.152Z,7.35
2022-10-08T05:06:36.415Z,7.18
2022-10-08T05:08:41.747Z,9.73
2022-10-08T05:10:51.928Z,6.32
2022-10-08T05:12:58.237Z,7.07
2022-10-08T05:15:03.353Z,5.57
2022-10-08T05:17:10.998Z,6.22
2022-10-08T05:19:16.009Z,5.93
2022-10-08T05:21:24.059Z,6.00
2022-10-08T05:23:29.063Z,5.80
2022-10-08T05:25:34.724Z,5.07
2022-10-08T05:27:39.874Z,6.22
2022-10-08T05:29:45.330Z,6.30
2022-10-08T05:31:50.397Z,5.72
2022-10-08T05:33:58.499Z,7.68
2022-10-08T05:36:06.874Z,6.55
2022-10-08T05:38:12.629Z,6.78
2022-10-08T05:40:18.176Z,8.10
2022-10-08T05:42:23.229Z,7.45
2022-10-08T05:44:28.626Z,7.03
2022-10-08T05:46:37.012Z,9.60
2022-10-08T05:48:42.601Z,9.85
2022-10-08T05:50:50.576Z,9.32
2022-10-08T05:52:55.715Z,10.25
2022-10-08T05:55:01.075Z,8.38
2022-10-08T05:57:06.385Z,9.43
2022-10-08T05:59:19.138Z,8.77
2022-10-08T06:01:28.341Z,7.30
2022-10-08T06:03:34.267Z,7.55
2022-10-08T06:05:40.088Z,8.07
2022-10-08T06:07:47.754Z,8.95
2022-10-08T06:09:52.977Z,8.68
2022-10-08T06:12:00.595Z,8.30
2022-10-08T06:14:07.531Z,9.18
2022-10-08T06:16:14.348Z,8.20
2022-10-08T06:18:19.715Z,8.88
2022-10-08T06:20:28.497Z,8.07
2022-10-08T06:22:36.837Z,7.72
2022-10-08T06:24:44.571Z,7.90
2022-10-08T06:26:49.615Z,7.55
2022-10-08T06:28:55.785Z,7.82
2022-10-08T06:31:02.633Z,6.35
2022-10-08T06:33:10.350Z,7.43
2022-10-08T06:35:15.614Z,7.30
2022-10-08T06:37:21.012Z,7.78
2022-10-08T06:39:26.370Z,6.22
2022-10-08T06:41:35.012Z,7.20
2022-10-08T06:43:40.355Z,7.05
2022-10-08T06:45:47.133Z,7.38
2022-10-08T06:47:52.151Z,7.55
2022-10-08T06:49:57.451Z,7.95
2022-10-08T06:52:02.614Z,8.55
2022-10-08T06:54:08.723Z,7.43
2022-10-08T06:56:18.480Z,8.75
2022-10-08T06:58:26.174Z,7.82
2022-10-08T07:00:32.027Z,7.63
2022-10-08T07:02:37.777Z,7.97
2022-10-08T07:04:42.982Z,8.15
2022-10-08T07:06:48.604Z,7.55
2022-10-08T07:08:56.366Z,7.78
2022-10-08T07:11:07.705Z,7.68
2022-10-08T07:13:12.768Z,8.20
2022-10-08T07:15:20.490Z,8.55
2022-10-08T07:17:28.800Z,8.48
2022-10-08T07:19:34.081Z,8.20
2022-10-08T07:21:40.565Z,8.18
2022-10-08T07:23:46.436Z,8.18
2022-10-08T07:25:59.705Z,8.15
2022-10-08T07:28:05.065Z,8.27
2022-10-08T07:30:11.706Z,7.72
2022-10-08T07:32:19.315Z,7.13
2022-10-08T07:34:24.599Z,7.40
2022-10-08T07:36:31.340Z,7.57
2022-10-08T07:38:36.367Z,7.22
2022-10-08T07:40:42.198Z,6.50
2022-10-08T07:42:47.464Z,6.32
2022-10-08T07:44:53.237Z,6.15
2022-10-08T07:46:58.450Z,6.10
2022-10-08T07:49:07.042Z,6.20
2022-10-08T07:51:13.723Z,6.50
2022-10-08T07:53:19.467Z,6.03
2022-10-08T07:55:24.890Z,5.88
2022-10-08T07:57:30.957Z,5.97
2022-10-08T07:59:36.320Z,5.20
2022-10-08T08:01:41.865Z,5.15
2022-10-08T08:03:47.292Z,5.70
2022-10-08T08:05:56.198Z,5.72
2022-10-08T08:08:02.020Z,5.28
2022-10-08T08:10:08.521Z,5.32
2022-10-08T08:12:13.993Z,5.03
2022-10-08T08:14:20.599Z,5.13
2022-10-08T08:16:29.325Z,5.30
2022-10-08T08:18:37.544Z,4.50
2022-10-08T08:20:42.996Z,4.95
2022-10-08T08:22:50.925Z,4.70
2022-10-08T08:24:56.571Z,4.50
2022-10-08T08:27:01.664Z,4.70
2022-10-08T08:29:10.749Z,4.43
2022-10-08T08:31:18.808Z,4.10
2022-10-08T08:33:23.895Z,4.72
2022-10-08T08:35:29.400Z,4.63
2022-10-08T08:37:34.426Z,4.20
2022-10-08T08:39:42.042Z,4.32
2022-10-08T08:42:20.907Z,4.75
2022-10-08T08:44:31.826Z,4.03
2022-10-08T08:46:41.022Z,3.63
2022-10-08T08:48:48.819Z,4.10
2022-10-08T08:50:59.505Z,4.00
2022-10-08T08:53:07.336Z,3.83
2022-10-08T08:55:18.188Z,4.63
2022-10-08T08:57:37.071Z,3.80
2022-10-08T08:59:47.395Z,4.15
2022-10-08T09:01:53.970Z,3.92
2022-10-08T09:04:07.633Z,3.42
2022-10-08T09:06:17.251Z,3.85
2022-10-08T09:08:28.779Z,3.88
2022-10-08T09:10:43.634Z,3.80
2022-10-08T09:12:50.310Z,3.50
2022-10-08T09:14:59.887Z,3.95
2022-10-08T09:17:17.362Z,2.80
2022-10-08T09:19:22.798Z,2.97
2022-10-08T09:21:32.063Z,2.85
2022-10-08T09:23:37.175Z,2.90
2022-10-08T09:25:46.693Z,3.15
2022-10-08T09:27:55.385Z,2.85
2022-10-08T09:30:00.765Z,3.13
2022-10-08T09:32:07.430Z,2.88
2022-10-08T09:34:22.476Z,3.05
2022-10-08T09:36:38.775Z,3.17
2022-10-08T09:38:44.507Z,2.92
2022-10-08T09:41:03.878Z,3.00
2022-10-08T09:43:20.428Z,3.45
2022-10-08T09:45:41.693Z,2.85
2022-10-08T09:47:46.721Z,2.83
2022-10-08T09:50:07.221Z,2.88
2022-10-08T09:52:21.802Z,2.63
2022-10-08T09:54:31.167Z,3.10
2022-10-08T09:56:39.990Z,1.83
2022-10-08T09:58:54.740Z,2.17
2022-10-08T10:01:07.608Z,1.17
2022-10-08T10:03:22.266Z,2.08
2022-10-08T10:05:31.783Z,1.50
2022-10-08T10:07:44.072Z,1.50
2022-10-08T10:09:54.249Z,1.67
2022-10-08T10:12:08.862Z,1.33
2022-10-08T10:14:24.697Z,1.52
2022-10-08T10:16:38.047Z,1.40
2022-10-08T10:18:53.736Z,1.42
2022-10-08T10:21:02.801Z,1.80
2022-10-08T10:23:14.976Z,1.42
2022-10-08T10:25:32.296Z,1.50
2022-10-08T10:27:46.773Z,1.33
2022-10-08T10:30:02.135Z,2.10
2022-10-08T10:32:17.729Z,1.50
2022-10-08T10:34:29.256Z,1.20
2022-10-08T10:36:39.979Z,1.20
2022-10-08T10:38:54.989Z,1.17
2022-10-08T10:41:14.542Z,1.20
2022-10-08T10:43:37.315Z,1.15
2022-10-08T10:45:47.546Z,1.00
2022-10-08T10:47:53.761Z,1.10
2022-10-08T10:50:00.059Z,1.33
2022-10-08T10:52:24.728Z,1.40
2022-10-08T10:55:05.380Z,1.25
2022-10-08T10:57:20.870Z,1.70
2022-10-08T10:59:46.501Z,1.27
2022-10-08T11:01:59.169Z,1.65
2022-10-08T11:04:13.156Z,1.65
2022-10-08T11:06:52.728Z,1.75
2022-10-08T11:09:05.178Z,1.75
2022-10-08T11:11:32.889Z,2.10
2022-10-08T11:14:01.221Z,2.10
2022-10-08T11:16:28.231Z,1.83
2022-10-08T11:18:42.122Z,2.33
2022-10-08T11:21:05.903Z,2.20
2022-10-08T11:23:23.770Z,2.25
2022-10-08T11:25:55.989Z,2.17
2022-10-08T11:28:23.295Z,2.53
2022-10-08T11:30:46.253Z,1.80
2022-10-08T11:32:58.867Z,2.60
2022-10-08T11:35:22.864Z,1.90
2022-10-08T11:37:35.421Z,2.00
2022-10-08T11:39:55.620Z,2.30
2022-10-08T11:42:10.666Z,2.42
2022-10-08T11:44:17.319Z,2.47
2022-10-08T11:46:32.883Z,2.65
2022-10-08T11:48:40.617Z,2.85
2022-10-08T11:50:45.712Z,2.10
2022-10-08T11:52:50.864Z,2.53
2022-10-08T11:54:56.192Z,2.55
2022-10-08T11:57:20.563Z,2.35
2022-10-08T11:59:39.863Z,2.50
2022-10-08T12:01:55.949Z,2.50
2022-10-08T12:04:18.940Z,2.92
2022-10-08T12:06:31.622Z,2.65
2022-10-08T12:08:58.101Z,2.50
2022-10-08T12:11:49.610Z,2.88
2022-10-08T12:14:47.740Z,2.58
2022-10-08T12:17:12.252Z,2.83
2022-10-08T12:20:05.217Z,2.33
2022-10-08T12:23:03.567Z,2.63
2022-10-08T12:26:08.996Z,3.00
2022-10-08T12:28:51.508Z,3.00
2022-10-08T12:30:58.949Z,3.20
2022-10-08T12:33:04.136Z,3.42
2022-10-08T12:35:23.746Z,3.35
2022-10-08T12:37:48.996Z,3.35
2022-10-08T12:39:56.273Z,3.40
2022-10-08T12:42:12.324Z,3.23
2022-10-08T12:44:33.543Z,3.03
2022-10-08T12:46:57.652Z,3.10
2022-10-08T12:49:09.266Z,3.13
2022-10-08T12:51:28.973Z,2.65
2022-10-08T12:53:35.067Z,2.90
2022-10-08T12:55:50.098Z,2.85
2022-10-08T12:57:56.009Z,3.15
2022-10-08T13:00:10.255Z,3.95
2022-10-08T13:02:39.400Z,3.00
2022-10-08T13:04:49.900Z,3.00
2022-10-08T13:06:57.383Z,2.90
2022-10-08T13:09:02.489Z,3.00
2022-10-08T13:11:12.648Z,2.85
2022-10-08T13:13:37.821Z,3.03
2022-10-08T13:15:45.898Z,3.08
2022-10-08T13:17:51.720Z,2.88
2022-10-08T13:20:10.554Z,2.63
2022-10-08T13:22:32.797Z,2.72
2022-10-08T13:24:45.906Z,2.40
2022-10-08T13:26:53.742Z,2.78
2022-10-08T13:29:20.636Z,2.63
2022-10-08T13:31:28.758Z,2.05
2022-10-08T13:33:34.186Z,2.38
2022-10-08T13:35:39.588Z,2.28
2022-10-08T13:37:45.671Z,2.50
2022-10-08T13:39:55.658Z,2.40
2022-10-08T13:42:05.622Z,1.75
2022-10-08T13:44:12.521Z,2.05
2022-10-08T13:46:17.670Z,2.05
2022-10-08T13:48:25.678Z,2.08
2022-10-08T13:50:31.493Z,2.05
2022-10-08T13:52:37.965Z,2.35
2022-10-08T13:54:43.087Z,2.47
2022-10-08T13:56:48.483Z,1.73
2022-10-08T13:58:53.927Z,2.05
2022-10-08T14:00:59.475Z,1.92
2022-10-08T14:03:04.812Z,2.05
2022-10-08T14:05:12.847Z,1.45
2022-10-08T14:07:26.616Z,1.85
2022-10-08T14:09:33.059Z,1.98
2022-10-08T14:11:41.263Z,1.77
2022-10-08T14:13:46.719Z,1.70
2022-10-08T14:15:52.743Z,2.08
2022-10-08T14:17:58.319Z,2.42
2022-10-08T14:20:03.761Z,1.83
2022-10-08T14:22:14.370Z,1.60
2022-10-08T14:24:19.467Z,1.80
2022-10-08T14:26:25.363Z,2.30
2022-10-08T14:28:30.436Z,2.13
2022-10-08T14:30:36.201Z,1.83
2022-10-08T14:32:42.362Z,2.28
2022-10-08T14:34:47.429Z,2.08
2022-10-08T14:36:55.997Z,2.22
2022-10-08T14:39:04.608Z,2.08
2022-10-08T14:41:13.279Z,1.85
2022-10-08T14:43:18.489Z,2.00
2022-10-08T14:45:24.012Z,1.80
2022-10-08T14:47:29.580Z,1.42
2022-10-08T14:49:34.696Z,1.88
2022-10-08T14:51:40.491Z,2.28
2022-10-08T14:53:45.959Z,1.92
2022-10-08T14:56:10.934Z,1.27
2022-10-08T14:58:17.651Z,1.52
2022-10-08T15:00:22.853Z,1.38
2022-10-08T15:02:28.200Z,1.70
2022-10-08T15:04:33.273Z,1.33
2022-10-08T15:06:38.740Z,1.70
2022-10-08T15:08:43.920Z,1.60
2022-10-08T15:10:49.727Z,2.05
2022-10-08T15:12:57.361Z,1.98
2022-10-08T15:17:07.645Z,1.60
2022-10-08T15:19:13.334Z,1.50
2022-10-08T15:21:19.192Z,1.45
2022-10-08T15:23:24.452Z,1.52
2022-10-08T15:25:30.434Z,1.80
2022-10-08T15:27:35.465Z,1.70
2022-10-08T15:29:43.469Z,1.90
2022-10-08T15:31:49.012Z,1.42
2022-10-08T15:33:56.498Z,1.75
2022-10-08T15:36:02.249Z,1.52
2022-10-08T15:38:07.358Z,2.05
2022-10-08T15:40:13.251Z,1.58
2022-10-08T15:42:18.662Z,1.30
2022-10-08T15:44:26.332Z,1.73
2022-10-08T15:48:39.413Z,1.40
2022-10-08T15:50:44.821Z,1.50
2022-10-08T15:52:50.430Z,1.80
2022-10-08T15:54:55.758Z,1.45
2022-10-08T15:57:01.791Z,1.40
2022-10-08T15:59:07.051Z,1.40
2022-10-08T16:01:14.684Z,1.42
2022-10-08T16:03:22.595Z,1.73
2022-10-08T16:07:32.793Z,1.23
2022-10-08T16:09:38.588Z,1.30
2022-10-08T16:11:44.346Z,1.48
2022-10-08T16:13:52.224Z,1.48
2022-10-08T16:15:57.730Z,1.25
2022-10-08T16:18:02.762Z,1.70
2022-10-08T16:20:12.744Z,1.77
2022-10-08T16:22:17.893Z,1.58
2022-10-08T16:24:24.123Z,1.50
2022-10-08T16:26:31.832Z,1.85
2022-10-08T16:28:40.584Z,1.90
2022-10-08T16:30:46.013Z,2.13
2022-10-08T16:32:51.309Z,2.00
2022-10-08T16:34:56.805Z,2.00
2022-10-08T16:37:05.043Z,1.90
2022-10-08T16:39:11.057Z,1.92
2022-10-08T16:41:18.792Z,2.03
2022-10-08T16:43:24.497Z,1.77
2022-10-08T16:45:29.906Z,1.92
2022-10-08T16:47:34.976Z,2.50
2022-10-08T16:49:40.422Z,2.60
2022-10-08T16:51:46.600Z,2.78
2022-10-08T16:53:56.715Z,2.35
2022-10-08T16:56:06.002Z,2.50
2022-10-08T16:58:11.115Z,1.55
2022-10-08T17:00:17.437Z,1.70
2022-10-08T17:02:25.973Z,1.73
2022-10-08T17:04:39.372Z,1.60
2022-10-08T17:06:45.515Z,3.08
2022-10-08T17:08:53.956Z,1.90
2022-10-08T17:10:58.990Z,1.95
2022-10-08T17:13:04.482Z,1.92
2022-10-08T17:15:11.401Z,2.40
2022-10-08T17:17:16.807Z,2.60
2022-10-08T17:19:21.994Z,2.58
2022-10-08T17:21:28.532Z,2.28
2022-10-08T17:23:38.638Z,2.65
2022-10-08T17:25:46.341Z,2.90
2022-10-08T17:29:56.435Z,2.40
2022-10-08T17:32:03.102Z,2.40
2022-10-08T17:34:09.711Z,2.47
2022-10-08T17:36:17.300Z,2.28
2022-10-08T17:40:27.607Z,2.28
2022-10-08T17:42:35.213Z,2.50
2022-10-08T17:44:40.525Z,2.50
2022-10-08T17:46:48.239Z,3.08
2022-10-08T17:48:54.021Z,3.17
2022-10-08T17:50:59.207Z,2.83
2022-10-08T17:53:04.278Z,2.70
2022-10-08T17:55:12.743Z,2.65
2022-10-08T17:57:20.382Z,2.65
2022-10-08T17:59:28.132Z,3.28
2022-10-08T18:01:36.303Z,2.90
2022-10-08T18:03:43.461Z,2.38
2022-10-08T18:05:59.070Z,3.75
2022-10-08T18:08:04.120Z,2.78
2022-10-08T18:10:11.719Z,3.03
2022-10-08T18:14:22.829Z,2.67
2022-10-08T18:16:30.413Z,2.72
2022-10-08T18:18:36.070Z,2.42
2022-10-08T18:20:41.153Z,2.33
2022-10-08T18:22:46.990Z,2.05
2022-10-08T18:24:52.858Z,2.30
2022-10-08T18:26:59.398Z,3.22
2022-10-08T18:29:09.461Z,4.75
2022-10-08T18:31:17.255Z,4.13
2022-10-08T18:33:24.933Z,2.95
2022-10-08T18:35:30.088Z,3.22
2022-10-08T18:37:35.116Z,3.42
2022-10-08T18:39:40.221Z,2.80
2022-10-08T18:41:47.580Z,3.47
2022-10-08T18:43:53.024Z,4.55
2022-10-08T18:45:58.061Z,4.18
2022-10-08T18:48:03.142Z,3.85
2022-10-08T18:50:11.771Z,4.00
2022-10-08T18:52:21.352Z,3.95
2022-10-08T18:54:27.792Z,4.28
2022-10-08T18:56:36.006Z,4.45
2022-10-08T18:58:41.062Z,3.50
2022-10-08T19:00:46.483Z,3.95
2022-10-08T19:02:54.345Z,4.75
2022-10-08T19:07:08.546Z,4.93
2022-10-08T19:09:13.836Z,5.10
2022-10-08T19:11:21.776Z,4.35
2022-10-08T19:15:31.700Z,4.40
2022-10-08T19:17:37.241Z,5.65
2022-10-08T19:19:42.261Z,5.90
2022-10-08T19:21:48.313Z,5.10
2022-10-08T19:23:56.508Z,4.88
2022-10-08T19:26:01.539Z,5.80
2022-10-08T19:28:06.677Z,6.55
2022-10-08T19:30:12.431Z,4.93
2022-10-08T19:32:17.517Z,5.60
2022-10-08T19:34:26.887Z,5.80
2022-10-08T19:36:36.243Z,6.40
2022-10-08T19:38:41.297Z,5.75
2022-10-08T19:40:48.936Z,4.53
2022-10-08T19:42:53.926Z,5.28
2022-10-08T19:44:58.988Z,4.85
2022-10-08T19:47:04.210Z,5.10
2022-10-08T19:49:10.848Z,5.72
2022-10-08T19:51:15.955Z,5.80
2022-10-08T19:53:21.889Z,6.05
2022-10-08T19:55:27.035Z,5.75
2022-10-08T19:57:34.734Z,6.65
2022-10-08T19:59:40.013Z,6.43
2022-10-08T20:01:45.602Z,5.78
2022-10-08T20:03:51.213Z,5.63
2022-10-08T20:05:56.466Z,5.50
2022-10-08T20:10:11.731Z,5.47
2022-10-08T20:12:16.763Z,5.05
2022-10-08T20:14:24.421Z,5.78
2022-10-08T20:18:36.673Z,5.65
2022-10-08T20:20:41.713Z,5.25
2022-10-08T20:22:47.032Z,5.10
2022-10-08T20:24:52.352Z,6.13
2022-10-08T20:26:57.457Z,5.90
2022-10-08T20:29:05.638Z,6.15
2022-10-08T20:31:15.737Z,6.75
2022-10-08T20:33:20.839Z,5.80
2022-10-08T20:35:26.941Z,5.07
2022-10-08T20:37:32.041Z,5.03
2022-10-08T20:39:37.373Z,6.15
2022-10-08T20:41:42.473Z,7.03
2022-10-08T20:43:47.559Z,5.90
2022-10-08T20:45:52.561Z,5.78
2022-10-08T20:48:00.123Z,4.93
2022-10-08T20:50:05.173Z,5.00
2022-10-08T20:52:10.376Z,5.40
2022-10-08T20:54:20.549Z,6.18
2022-10-08T20:56:26.906Z,5.53
2022-10-08T20:58:33.537Z,6.03
2022-10-08T21:00:38.677Z,7.30
2022-10-08T21:02:43.714Z,7.10
2022-10-08T21:04:51.365Z,7.55
2022-10-08T21:06:56.442Z,6.80
2022-10-08T21:09:02.407Z,5.65
2022-10-08T21:11:09.488Z,6.18
2022-10-08T21:13:14.554Z,5.85
2022-10-08T21:15:19.807Z,6.88
2022-10-08T21:17:24.823Z,6.60
2022-10-08T21:19:29.917Z,6.38
2022-10-08T21:21:38.960Z,5.65
2022-10-08T21:23:45.944Z,5.78
2022-10-08T21:25:51.254Z,5.22
2022-10-08T21:27:56.467Z,5.38
2022-10-08T21:30:01.472Z,5.78
2022-10-08T21:32:06.661Z,5.82
2022-10-08T21:34:13.594Z,5.65
2022-10-08T21:36:20.984Z,5.10
2022-10-08T21:38:28.622Z,6.15
2022-10-08T21:40:33.629Z,5.85
2022-10-08T21:42:38.664Z,5.35
2022-10-08T21:44:43.688Z,5.22
2022-10-08T21:46:48.717Z,5.68
2022-10-08T21:48:58.325Z,4.97
2022-10-08T21:51:05.910Z,5.97
2022-10-08T21:53:11.349Z,5.75
2022-10-08T21:55:19.103Z,6.40
2022-10-08T21:57:24.590Z,6.15
2022-10-08T21:59:29.898Z,6.25
2022-10-08T22:01:38.198Z,6.00
2022-10-08T22:03:43.298Z,6.38
2022-10-08T22:05:56.763Z,6.15
2022-10-08T22:08:01.800Z,6.90
2022-10-08T22:10:07.651Z,6.00
2022-10-08T22:12:15.253Z,5.28
2022-10-08T22:16:26.766Z,5.13
2022-10-08T22:18:36.025Z,5.55
2022-10-08T22:20:42.020Z,5.43
2022-10-08T22:22:47.415Z,5.45
2022-10-08T22:24:52.873Z,4.90
2022-10-08T22:26:58.510Z,5.47
2022-10-08T22:29:08.029Z,6.28
2022-10-08T22:31:18.428Z,5.05
2022-10-08T22:33:24.256Z,4.78
2022-10-08T22:35:29.961Z,4.72
2022-10-08T22:37:35.003Z,4.68
2022-10-08T22:39:40.347Z,4.53
2022-10-08T22:41:45.528Z,3.90
2022-10-08T22:43:50.648Z,4.00
2022-10-08T22:45:58.689Z,4.18
2022-10-08T22:48:04.389Z,3.88
2022-10-08T22:50:11.416Z,4.55
2022-10-08T22:52:16.443Z,4.90
2022-10-08T22:54:23.007Z,4.50
2022-10-08T22:56:31.004Z,4.00
2022-10-08T23:00:41.381Z,4.03
2022-10-08T23:02:49.883Z,4.40
2022-10-08T23:04:55.126Z,4.00
2022-10-08T23:07:00.708Z,3.80
2022-10-08T23:09:09.279Z,4.10
2022-10-08T23:11:14.796Z,4.93
2022-10-08T23:13:20.825Z,4.15
2022-10-08T23:15:25.847Z,3.90
2022-10-08T23:17:31.291Z,3.70
2022-10-08T23:19:38.908Z,4.50
2022-10-08T23:21:44.515Z,4.30
2022-10-08T23:23:52.474Z,4.90
2022-10-08T23:25:58.361Z,4.70
2022-10-08T23:28:03.807Z,5.20
2022-10-08T23:30:31.393Z,4.10
2022-10-08T23:32:36.521Z,4.97
2022-10-08T23:34:44.598Z,4.90
2022-10-08T23:36:49.972Z,4.57
2022-10-08T23:38:56.514Z,4.93
2022-10-08T23:41:02.933Z,4.25
2022-10-08T23:43:08.061Z,4.13
2022-10-08T23:45:14.183Z,4.63
2022-10-08T23:47:19.298Z,4.50
2022-10-08T23:49:24.387Z,5.00
2022-10-08T23:51:33.050Z,4.70
2022-10-08T23:53:39.469Z,4.22
2022-10-08T23:55:45.248Z,4.10
2022-10-08T23:57:50.952Z,6.05
2022-10-08T23:59:56.075Z,4.93
